createdAt,value
2024-03-06T00:00:21.024Z,13.65
2024-03-06T00:02:48.389Z,12.35
2024-03-06T00:05:15.772Z,13.10
2024-03-06T00:07:43.016Z,13.50
2024-03-06T00:10:10.502Z,13.52
2024-03-06T00:12:37.592Z,12.23
2024-03-06T00:15:05.187Z,13.48
2024-03-06T00:17:32.563Z,13.70
2024-03-06T00:19:59.788Z,14.38
2024-03-06T00:22:26.961Z,14.98
2024-03-06T00:24:54.124Z,13.85
2024-03-06T00:27:21.457Z,13.10
2024-03-06T00:29:48.831Z,14.88
2024-03-06T00:32:16.266Z,14.88
2024-03-06T00:34:43.702Z,15.05
2024-03-06T00:37:13.983Z,16.27
2024-03-06T00:39:44.445Z,15.03
2024-03-06T00:42:14.957Z,13.93
2024-03-06T00:44:42.566Z,12.60
2024-03-06T00:47:09.985Z,15.93
2024-03-06T00:49:42.934Z,14.60
2024-03-06T00:52:10.689Z,13.13
2024-03-06T00:54:37.757Z,13.73
2024-03-06T00:57:05.015Z,16.40
2024-03-06T00:59:32.050Z,16.63
2024-03-06T01:01:59.258Z,15.77
2024-03-06T01:04:26.411Z,14.07
2024-03-06T01:06:53.587Z,12.20
2024-03-06T01:09:20.718Z,13.57
2024-03-06T01:11:49.210Z,13.38
2024-03-06T01:14:17.820Z,14.15
2024-03-06T01:16:45.124Z,16.52
2024-03-06T01:19:12.250Z,16.88
2024-03-06T01:21:39.800Z,16.05
2024-03-06T01:24:06.934Z,13.45
2024-03-06T01:26:34.185Z,13.73
2024-03-06T01:29:01.672Z,15.52
2024-03-06T01:31:29.007Z,12.90
2024-03-06T01:33:56.105Z,14.05
2024-03-06T01:36:23.258Z,15.35
2024-03-06T01:38:50.403Z,20.38
2024-03-06T01:41:17.553Z,13.90
2024-03-06T01:43:45.448Z,13.45
2024-03-06T01:46:12.599Z,15.35
2024-03-06T01:48:40.601Z,15.02
2024-03-06T01:51:07.808Z,12.95
2024-03-06T01:53:36.328Z,15.90
2024-03-06T01:56:05.364Z,14.50
2024-03-06T01:58:35.378Z,15.38
2024-03-06T02:01:03.684Z,13.70
2024-03-06T02:03:32.942Z,15.63
2024-03-06T02:06:03.631Z,15.98
2024-03-06T02:08:30.816Z,16.42
2024-03-06T02:10:58.102Z,15.88
2024-03-06T02:13:25.379Z,14.45
2024-03-06T02:15:52.530Z,14.65
2024-03-06T02:18:19.614Z,14.90
2024-03-06T02:20:48.340Z,14.90
2024-03-06T02:23:16.026Z,15.98
2024-03-06T02:25:43.290Z,15.23
2024-03-06T02:28:10.467Z,14.00
2024-03-06T02:30:38.527Z,16.10
2024-03-06T02:33:08.045Z,14.55
2024-03-06T02:35:36.412Z,14.80
2024-03-06T02:38:08.872Z,13.43
2024-03-06T02:40:36.168Z,13.50
2024-03-06T02:43:03.791Z,16.38
2024-03-06T02:45:30.824Z,15.35
2024-03-06T02:47:57.947Z,14.20
2024-03-06T02:50:25.214Z,15.02
2024-03-06T02:52:54.636Z,14.98
2024-03-06T02:55:23.832Z,15.30
2024-03-06T02:57:50.995Z,16.33
2024-03-06T03:00:18.253Z,14.50
2024-03-06T03:02:45.304Z,12.57
2024-03-06T03:05:12.600Z,13.55
2024-03-06T03:07:39.941Z,16.52
2024-03-06T03:10:07.754Z,15.45
2024-03-06T03:12:35.218Z,14.13
2024-03-06T03:15:02.652Z,15.38
2024-03-06T03:17:29.789Z,14.00
2024-03-06T03:19:57.095Z,13.38
2024-03-06T03:22:24.451Z,14.93
2024-03-06T03:24:51.558Z,16.23
2024-03-06T03:27:19.247Z,17.33
2024-03-06T03:29:46.374Z,14.27
2024-03-06T03:32:13.555Z,17.42
2024-03-06T03:34:41.004Z,14.93
2024-03-06T03:37:08.142Z,14.27
2024-03-06T03:39:35.209Z,16.45
2024-03-06T03:42:02.512Z,14.57
2024-03-06T03:44:29.595Z,15.10
2024-03-06T03:46:56.702Z,17.48
2024-03-06T03:49:23.800Z,15.85
2024-03-06T03:51:50.961Z,15.25
2024-03-06T03:54:18.040Z,13.95
2024-03-06T03:56:45.225Z,14.25
2024-03-06T03:59:12.392Z,14.73
2024-03-06T04:01:39.556Z,15.38
2024-03-06T04:04:08.334Z,14.73
2024-03-06T04:06:35.588Z,15.30
2024-03-06T04:09:03.100Z,14.38
2024-03-06T04:11:31.083Z,14.60
2024-03-06T04:13:58.254Z,16.33
2024-03-06T04:16:25.395Z,14.13
2024-03-06T04:18:53.047Z,16.10
2024-03-06T04:21:20.200Z,14.73
2024-03-06T04:23:47.462Z,14.27
2024-03-06T04:26:14.864Z,14.25
2024-03-06T04:28:42.030Z,15.20
2024-03-06T04:31:09.290Z,13.90
2024-03-06T04:33:36.662Z,13.65
2024-03-06T04:36:07.012Z,13.50
2024-03-06T04:38:34.199Z,13.77
2024-03-06T04:41:01.319Z,14.60
2024-03-06T04:43:28.667Z,13.93
2024-03-06T04:45:55.794Z,16.20
2024-03-06T04:48:22.991Z,16.60
2024-03-06T04:50:50.495Z,14.88
2024-03-06T04:53:17.738Z,14.73
2024-03-06T04:55:45.017Z,15.25
2024-03-06T04:58:12.198Z,15.05
2024-03-06T05:00:39.436Z,15.70
2024-03-06T05:59:34.570Z,15.18
2024-03-06T06:02:01.858Z,15.38
2024-03-06T06:04:29.109Z,16.13
2024-03-06T06:06:56.183Z,15.52
2024-03-06T06:09:23.318Z,14.52
2024-03-06T06:11:51.968Z,17.55
2024-03-06T06:14:19.169Z,15.07
2024-03-06T06:16:46.282Z,16.40
2024-03-06T06:19:13.404Z,16.15
2024-03-06T06:21:40.490Z,14.13
2024-03-06T06:24:08.351Z,16.13
2024-03-06T06:26:35.456Z,16.33
2024-03-06T06:29:02.703Z,14.45
2024-03-06T06:31:30.014Z,15.18
2024-03-06T06:33:57.166Z,17.30
2024-03-06T06:36:24.414Z,16.73
2024-03-06T06:38:51.589Z,17.15
2024-03-06T06:41:19.104Z,14.88
2024-03-06T06:43:46.661Z,16.48
2024-03-06T06:46:13.972Z,15.27
2024-03-06T06:48:41.148Z,15.35
2024-03-06T06:51:08.688Z,18.02
2024-03-06T06:53:35.958Z,14.70
2024-03-06T06:56:03.373Z,16.42
2024-03-06T06:58:30.557Z,15.10
2024-03-06T07:00:57.718Z,15.85
2024-03-06T07:03:30.809Z,17.45
2024-03-06T07:05:58.759Z,14.13
2024-03-06T07:08:25.938Z,16.02
2024-03-06T07:10:56.319Z,17.10
2024-03-06T07:13:23.597Z,16.83
2024-03-06T07:15:50.694Z,15.40
2024-03-06T07:18:17.895Z,15.50
2024-03-06T07:20:45.177Z,14.40
2024-03-06T07:23:12.605Z,15.60
2024-03-06T07:25:39.693Z,14.95
2024-03-06T07:28:06.977Z,16.92
2024-03-06T07:30:34.092Z,16.88
2024-03-06T07:33:02.049Z,16.73
2024-03-06T07:35:29.260Z,18.40
2024-03-06T07:37:56.431Z,17.42
2024-03-06T07:40:23.907Z,14.90
2024-03-06T07:42:51.022Z,17.33
2024-03-06T07:45:18.113Z,15.93
2024-03-06T07:47:46.559Z,16.95
2024-03-06T07:50:14.030Z,16.63
2024-03-06T07:52:41.169Z,18.77
2024-03-06T07:55:08.589Z,15.73
2024-03-06T07:57:35.628Z,17.10
2024-03-06T08:00:09.699Z,19.73
2024-03-06T08:05:04.112Z,15.45
2024-03-06T08:07:31.592Z,17.27
2024-03-06T08:09:58.577Z,18.25
2024-03-06T08:12:25.666Z,17.38
2024-03-06T08:14:53.012Z,17.63
2024-03-06T08:17:20.215Z,15.40
2024-03-06T08:19:47.483Z,18.85
2024-03-06T08:22:15.217Z,16.80
2024-03-06T08:24:42.368Z,18.30
2024-03-06T08:27:09.482Z,17.92
2024-03-06T08:29:36.580Z,18.73
2024-03-06T08:32:05.160Z,19.35
2024-03-06T08:34:33.232Z,18.63
2024-03-06T08:37:00.274Z,20.77
2024-03-06T08:39:27.297Z,15.93
2024-03-06T08:41:54.375Z,16.85
2024-03-06T08:44:21.721Z,15.65
2024-03-06T08:46:48.727Z,16.80
2024-03-06T08:49:15.827Z,19.10
2024-03-06T08:51:42.845Z,20.65
2024-03-06T08:54:14.631Z,18.38
2024-03-06T08:56:45.146Z,19.80
2024-03-06T08:59:12.574Z,20.77
2024-03-06T09:01:39.692Z,19.60
2024-03-06T09:04:08.631Z,26.00
2024-03-06T09:06:35.653Z,19.83
2024-03-06T09:09:03.556Z,19.48
2024-03-06T09:11:30.671Z,20.73
2024-03-06T09:13:57.770Z,17.98
2024-03-06T09:16:25.671Z,19.05
2024-03-06T09:18:53.778Z,19.00
2024-03-06T09:21:22.396Z,19.33
2024-03-06T09:23:52.702Z,19.75
2024-03-06T09:26:19.871Z,19.38
2024-03-06T09:28:47.029Z,19.40
2024-03-06T09:31:14.808Z,17.15
2024-03-06T09:33:42.051Z,16.45
2024-03-06T09:36:14.473Z,17.70
2024-03-06T09:38:41.857Z,16.65
2024-03-06T09:41:09.942Z,15.60
2024-03-06T09:43:37.331Z,19.80
2024-03-06T09:46:05.367Z,19.75
2024-03-06T09:48:33.227Z,18.17
2024-03-06T09:51:05.680Z,17.13
2024-03-06T09:53:32.788Z,16.55
2024-03-06T09:56:01.601Z,19.55
2024-03-06T09:58:28.950Z,18.60
2024-03-06T10:00:57.774Z,18.77
2024-03-06T10:03:24.874Z,19.42
2024-03-06T10:05:52.044Z,17.45
2024-03-06T10:08:21.296Z,19.35
2024-03-06T10:10:51.825Z,16.52
2024-03-06T10:13:18.837Z,15.80
2024-03-06T10:16:10.110Z,17.02
2024-03-06T10:18:40.077Z,18.50
2024-03-06T10:21:07.284Z,17.77
2024-03-06T10:23:36.101Z,18.95
2024-03-06T10:26:03.324Z,18.02
2024-03-06T10:28:30.408Z,15.82
2024-03-06T10:31:07.176Z,21.10
2024-03-06T10:33:35.462Z,17.75
2024-03-06T10:36:05.237Z,19.33
2024-03-06T10:38:37.192Z,17.52
2024-03-06T10:41:07.828Z,17.85
2024-03-06T10:43:36.472Z,18.13
2024-03-06T10:46:07.820Z,17.15
2024-03-06T10:48:36.256Z,20.48
2024-03-06T10:51:04.961Z,19.55
2024-03-06T10:53:34.254Z,19.73
2024-03-06T10:56:03.252Z,20.20
2024-03-06T10:58:31.036Z,21.02
2024-03-06T11:00:59.485Z,19.63
2024-03-06T11:03:27.500Z,18.23
2024-03-06T11:05:54.626Z,21.05
2024-03-06T11:08:22.900Z,18.42
2024-03-06T11:10:50.338Z,25.15
2024-03-06T11:13:28.266Z,20.58
2024-03-06T11:15:58.856Z,20.30
2024-03-06T11:18:32.544Z,20.63
2024-03-06T11:21:02.846Z,19.13
2024-03-06T11:23:33.677Z,20.00
2024-03-06T11:26:08.066Z,20.90
2024-03-06T11:28:41.500Z,19.10
2024-03-06T11:31:20.197Z,22.25
2024-03-06T11:36:31.714Z,19.63
2024-03-06T11:39:01.554Z,17.80
2024-03-06T11:41:33.541Z,23.42
2024-03-06T11:44:02.101Z,21.30
2024-03-06T11:47:10.553Z,20.20
2024-03-06T11:49:39.480Z,20.60
2024-03-06T11:52:11.858Z,19.83
2024-03-06T11:54:40.081Z,19.33
2024-03-06T11:57:08.097Z,20.67
2024-03-06T11:59:41.195Z,20.65
2024-03-06T12:02:08.759Z,20.50
2024-03-06T12:04:40.058Z,19.85
2024-03-06T12:07:08.362Z,19.33
2024-03-06T12:09:41.106Z,22.98
2024-03-06T12:12:11.302Z,21.27
2024-03-06T12:14:41.302Z,20.27
2024-03-06T12:17:14.838Z,21.17
2024-03-06T12:19:43.927Z,21.63
2024-03-06T12:22:12.091Z,21.80
2024-03-06T12:24:39.188Z,21.48
2024-03-06T12:27:08.555Z,19.10
2024-03-06T12:29:39.378Z,18.70
2024-03-06T12:32:19.085Z,21.35
2024-03-06T12:34:57.371Z,19.13
2024-03-06T12:37:36.139Z,21.20
2024-03-06T12:40:06.104Z,19.52
2024-03-06T12:42:34.057Z,19.45
2024-03-06T12:45:01.347Z,19.05
2024-03-06T12:47:28.676Z,19.45
2024-03-06T12:49:55.858Z,19.88
2024-03-06T12:52:22.952Z,20.60
2024-03-06T12:54:50.915Z,18.98
2024-03-06T12:57:19.169Z,18.95
2024-03-06T12:59:46.488Z,20.33
2024-03-06T13:02:13.788Z,18.92
2024-03-06T13:04:40.851Z,19.75
2024-03-06T13:07:07.965Z,17.75
2024-03-06T13:09:35.174Z,17.08
2024-03-06T13:12:02.704Z,19.75
2024-03-06T13:14:29.817Z,23.15
2024-03-06T13:16:57.378Z,19.67
2024-03-06T13:19:24.528Z,22.75
2024-03-06T13:21:51.936Z,22.05
2024-03-06T13:24:19.062Z,21.63
2024-03-06T13:26:47.168Z,21.13
2024-03-06T13:29:15.016Z,24.80
2024-03-06T13:31:42.086Z,21.95
2024-03-06T13:34:09.221Z,19.98
2024-03-06T13:36:36.532Z,21.63
2024-03-06T13:39:03.652Z,23.05
2024-03-06T13:41:31.218Z,22.83
2024-03-06T13:43:58.493Z,22.20
2024-03-06T13:46:25.572Z,20.25
2024-03-06T13:48:52.718Z,20.88
2024-03-06T13:51:19.745Z,22.92
2024-03-06T13:53:47.372Z,20.88
2024-03-06T13:56:14.511Z,19.65
2024-03-06T13:58:42.302Z,25.42
2024-03-06T14:01:09.360Z,20.58
2024-03-06T14:03:38.931Z,19.63
2024-03-06T14:06:08.497Z,20.77
2024-03-06T14:08:35.624Z,20.88
2024-03-06T14:11:05.356Z,22.02
2024-03-06T14:13:32.492Z,21.80
2024-03-06T14:16:01.713Z,19.45
2024-03-06T14:18:30.059Z,19.80
2024-03-06T14:20:57.351Z,23.00
2024-03-06T14:23:24.572Z,23.20
2024-03-06T14:25:52.012Z,21.38
2024-03-06T14:28:19.065Z,21.40
2024-03-06T14:30:46.613Z,24.58
2024-03-06T14:33:13.863Z,18.80
2024-03-06T14:35:40.978Z,18.23
2024-03-06T14:38:08.095Z,23.15
2024-03-06T14:40:35.414Z,20.02
2024-03-06T14:43:03.328Z,18.33
2024-03-06T14:45:30.468Z,19.35
2024-03-06T14:47:57.639Z,19.95
2024-03-06T14:50:24.815Z,18.33
2024-03-06T14:52:51.943Z,19.60
2024-03-06T14:55:19.070Z,18.42
2024-03-06T14:57:46.173Z,19.45
2024-03-06T15:00:13.919Z,21.88
2024-03-06T15:02:41.485Z,22.00
2024-03-06T15:05:08.848Z,21.52
2024-03-06T15:07:35.955Z,19.85
2024-03-06T15:10:03.083Z,21.33
2024-03-06T15:12:30.164Z,19.50
2024-03-06T15:14:59.443Z,18.33
2024-03-06T15:17:29.568Z,21.92
2024-03-06T15:19:58.250Z,19.95
2024-03-06T15:22:25.876Z,21.23
2024-03-06T15:24:52.932Z,18.55
2024-03-06T15:27:20.005Z,26.38
2024-03-06T15:29:47.209Z,19.52
2024-03-06T15:32:14.453Z,19.85
2024-03-06T15:34:41.630Z,17.50
2024-03-06T15:37:08.657Z,19.05
2024-03-06T15:39:35.984Z,18.65
2024-03-06T15:42:03.145Z,20.98
2024-03-06T15:44:30.274Z,17.45
2024-03-06T15:47:06.603Z,17.88
2024-03-06T15:49:37.725Z,18.00
2024-03-06T15:52:05.200Z,18.98
2024-03-06T15:54:32.558Z,17.95
2024-03-06T15:56:59.760Z,16.90
2024-03-06T15:59:27.011Z,18.38
2024-03-06T16:01:54.247Z,19.10
2024-03-06T16:04:21.402Z,18.20
2024-03-06T16:06:48.772Z,18.20
2024-03-06T16:09:16.360Z,15.93
2024-03-06T16:11:43.912Z,19.50
2024-03-06T16:14:12.186Z,18.77
2024-03-06T16:16:43.379Z,20.08
2024-03-06T16:19:10.766Z,16.10
2024-03-06T16:21:41.187Z,20.23
2024-03-06T16:24:11.063Z,16.15
2024-03-06T16:26:38.777Z,20.83
2024-03-06T16:29:06.070Z,17.67
2024-03-06T16:31:33.304Z,17.13
2024-03-06T16:34:00.564Z,21.70
2024-03-06T16:36:27.722Z,23.83
2024-03-06T16:38:54.926Z,22.85
2024-03-06T16:41:22.158Z,21.02
2024-03-06T16:43:49.290Z,24.60
2024-03-06T16:46:18.480Z,23.30
2024-03-06T16:48:45.643Z,18.67
2024-03-06T16:51:19.334Z,21.13
2024-03-06T16:53:46.645Z,20.80
2024-03-06T16:56:14.148Z,19.90
2024-03-06T16:58:41.718Z,19.40
2024-03-06T17:01:08.832Z,18.15
2024-03-06T17:03:35.943Z,19.17
2024-03-06T17:06:03.114Z,19.10
2024-03-06T17:08:30.188Z,18.73
2024-03-06T17:10:57.287Z,19.17
2024-03-06T17:13:24.421Z,21.52
2024-03-06T17:15:52.363Z,24.88
2024-03-06T17:18:22.448Z,19.02
2024-03-06T17:20:49.732Z,19.65
2024-03-06T17:23:16.867Z,20.50
2024-03-06T17:25:45.268Z,18.45
2024-03-06T17:28:12.367Z,18.77
2024-03-06T17:30:39.429Z,19.50
2024-03-06T17:33:06.697Z,20.05
2024-03-06T17:35:33.942Z,21.30
2024-03-06T17:38:04.270Z,20.05
2024-03-06T17:40:31.744Z,22.27
2024-03-06T17:42:59.025Z,19.63
2024-03-06T17:45:26.285Z,19.58
2024-03-06T17:47:53.813Z,23.77
2024-03-06T17:50:21.568Z,21.23
2024-03-06T17:52:48.793Z,19.00
2024-03-06T17:55:18.279Z,20.70
2024-03-06T17:57:48.117Z,17.55
2024-03-06T18:00:18.199Z,20.63
2024-03-06T18:02:45.862Z,19.08
2024-03-06T18:05:14.366Z,19.10
2024-03-06T18:07:45.864Z,18.92
2024-03-06T18:10:14.354Z,18.90
2024-03-06T18:12:41.513Z,20.77
2024-03-06T18:15:09.246Z,22.90
2024-03-06T18:17:38.660Z,21.40
2024-03-06T18:20:09.322Z,24.02
2024-03-06T18:22:38.681Z,19.58
2024-03-06T18:25:09.527Z,20.10
2024-03-06T18:27:37.007Z,20.75
2024-03-06T18:30:05.365Z,22.67
2024-03-06T18:32:33.027Z,19.80
2024-03-06T18:35:00.325Z,19.65
2024-03-06T18:37:27.602Z,20.70
2024-03-06T18:39:54.755Z,20.30
2024-03-06T18:42:22.583Z,20.98
2024-03-06T18:44:50.602Z,24.67
2024-03-06T18:47:21.054Z,21.77
2024-03-06T18:49:48.276Z,19.60
2024-03-06T18:52:15.557Z,21.85
2024-03-06T18:54:43.028Z,22.98
2024-03-06T18:57:10.243Z,19.88
2024-03-06T18:59:39.081Z,22.27
2024-03-06T19:02:09.238Z,21.88
2024-03-06T19:04:38.304Z,22.52
2024-03-06T19:07:06.052Z,20.33
2024-03-06T19:09:33.152Z,20.35
2024-03-06T19:12:00.888Z,23.35
2024-03-06T19:14:28.722Z,20.00
2024-03-06T19:16:55.837Z,20.30
2024-03-06T19:19:23.773Z,21.77
2024-03-06T19:21:53.225Z,19.95
2024-03-06T19:24:21.746Z,21.80
2024-03-06T19:26:51.399Z,20.50
2024-03-06T19:29:19.696Z,23.77
2024-03-06T19:31:47.579Z,19.52
2024-03-06T19:34:17.637Z,18.25
2024-03-06T19:36:45.162Z,19.27
2024-03-06T19:39:12.249Z,18.42
2024-03-06T19:41:40.740Z,19.48
2024-03-06T19:44:07.960Z,19.30
2024-03-06T19:46:35.325Z,23.52
2024-03-06T19:49:02.445Z,19.20
2024-03-06T19:51:32.250Z,19.98
2024-03-06T19:53:59.517Z,18.33
2024-03-06T19:56:26.714Z,19.95
2024-03-06T19:58:54.216Z,22.00
2024-03-06T20:01:21.953Z,25.10
2024-03-06T20:03:49.113Z,22.27
2024-03-06T20:06:16.844Z,20.85
2024-03-06T20:08:44.046Z,17.65
2024-03-06T20:11:11.761Z,18.15
2024-03-06T20:13:39.083Z,21.52
2024-03-06T20:16:07.712Z,18.30
2024-03-06T20:18:36.484Z,18.67
2024-03-06T20:21:04.133Z,16.70
2024-03-06T20:23:31.181Z,19.35
2024-03-06T20:25:58.661Z,16.40
2024-03-06T20:28:26.194Z,18.05
2024-03-06T20:30:53.864Z,19.33
2024-03-06T20:33:21.317Z,17.10
2024-03-06T20:35:51.420Z,21.27
2024-03-06T20:38:19.988Z,16.65
2024-03-06T20:40:50.201Z,16.80
2024-03-06T20:43:17.394Z,21.08
2024-03-06T20:45:45.304Z,17.38
2024-03-06T20:48:13.500Z,16.55
2024-03-06T20:50:41.764Z,15.55
2024-03-06T20:53:09.059Z,16.88
2024-03-06T20:55:36.397Z,17.85
2024-03-06T20:58:03.578Z,13.77
2024-03-06T21:00:33.540Z,14.20
2024-03-06T21:03:01.183Z,14.50
2024-03-06T21:05:28.364Z,13.25
2024-03-06T21:07:55.588Z,13.82
2024-03-06T21:10:23.201Z,14.75
2024-03-06T21:12:51.621Z,12.77
2024-03-06T21:15:19.187Z,12.93
2024-03-06T21:17:46.517Z,16.15
2024-03-06T21:20:14.190Z,13.05
2024-03-06T21:22:42.910Z,15.18
2024-03-06T21:25:13.064Z,13.93
2024-03-06T21:27:41.028Z,13.13
2024-03-06T21:30:09.594Z,15.57
2024-03-06T21:32:37.855Z,14.10
2024-03-06T21:35:05.671Z,15.00
2024-03-06T21:37:33.929Z,14.05
2024-03-06T21:40:04.085Z,10.68
2024-03-06T21:42:32.230Z,14.48
2024-03-06T21:44:59.469Z,14.13
2024-03-06T21:47:26.657Z,12.00
2024-03-06T21:49:53.893Z,13.88
2024-03-06T21:52:20.979Z,10.77
2024-03-06T21:54:48.098Z,12.52
2024-03-06T21:57:16.878Z,13.05
2024-03-06T21:59:44.281Z,12.88
2024-03-06T22:02:14.215Z,11.98
2024-03-06T22:04:41.507Z,13.55
2024-03-06T22:07:08.672Z,12.85
2024-03-06T22:09:38.557Z,13.50
2024-03-06T22:12:09.437Z,12.40
2024-03-06T22:14:36.714Z,12.52
2024-03-06T22:17:03.891Z,14.05
2024-03-06T22:19:31.452Z,13.13
2024-03-06T22:21:58.831Z,13.73
2024-03-06T22:24:26.355Z,12.80
2024-03-06T22:26:54.624Z,12.18
2024-03-06T22:29:21.839Z,12.88
2024-03-06T22:31:51.847Z,12.13
2024-03-06T22:34:19.032Z,11.32
2024-03-06T22:36:46.117Z,12.18
2024-03-06T22:39:13.337Z,11.05
2024-03-06T22:41:40.761Z,12.73
2024-03-06T22:44:08.001Z,13.35
2024-03-06T22:46:47.332Z,12.32
2024-03-06T22:49:18.796Z,10.93
2024-03-06T22:51:46.349Z,14.85
2024-03-06T22:54:13.631Z,11.40
2024-03-06T22:56:41.155Z,12.38
2024-03-06T22:59:11.104Z,11.38
2024-03-06T23:01:41.399Z,12.55
2024-03-06T23:04:08.847Z,10.95
2024-03-06T23:06:36.671Z,12.23
2024-03-06T23:09:04.967Z,12.05
2024-03-06T23:11:33.058Z,11.25
2024-03-06T23:14:00.374Z,13.07
2024-03-06T23:16:29.152Z,11.88
2024-03-06T23:18:59.074Z,13.63
2024-03-06T23:21:27.858Z,11.35
2024-03-06T23:23:55.123Z,10.90
2024-03-06T23:26:22.557Z,11.80
2024-03-06T23:28:49.978Z,13.57
2024-03-06T23:31:17.556Z,12.30
2024-03-06T23:33:45.371Z,12.30
2024-03-06T23:36:15.304Z,12.73
2024-03-06T23:38:42.610Z,11.98
2024-03-06T23:41:10.993Z,13.10
2024-03-06T23:43:38.196Z,13.65
2024-03-06T23:46:08.564Z,11.95
2024-03-06T23:48:37.734Z,12.75
2024-03-06T23:51:05.430Z,12.13
2024-03-06T23:53:33.293Z,13.18
2024-03-06T23:56:00.408Z,12.10
2024-03-06T23:58:27.801Z,14.27
